D/T METAR WX W/DIR W/SPE G/SPE TEMP DEWP
6/06/20 09:50 EGNT 060850Z AUTO 35023KT 9999 BKN017/// 11/08 Q0989 N (350°) 26.5mph 11°C 8°C
6/06/20 09:20 EGNT 060820Z AUTO 34019KT 9999 BKN012/// OVC031/// 10/08 Q0989 NNW (340°) 21.9mph 10°C 8°C
6/06/20 08:50 EGNT 060750Z AUTO 34020G32KT 8000 BKN008/// OVC020/// 09/07 Q0988 RERA NNW (340°) 23.0mph 36.8mph 9°C 7°C
6/06/20 08:20 EGNT 060720Z AUTO 32018KT 2300 RA OVC009/// 09/06 Q0988 RERA RA NW (320°) 20.7mph 9°C 6°C
6/06/20 07:50 EGNT 060650Z AUTO 30018KT 9999 OVC015/// 09/05 Q0987 RERA WNW (300°) 20.7mph 9°C 5°C
6/06/20 07:20 EGNT 060620Z AUTO 31019G30KT 280V340 9999 OVC018/// 08/04 Q0987 NW (310°) 21.9mph 34.5mph 8°C 4°C
6/06/20 06:50 EGNT 060550Z AUTO 31016KT 9999 OVC026/// 09/05 Q0987 NW (310°) 18.4mph 9°C 5°C
6/06/20 06:20 EGNT 060520Z AUTO 29013KT 270V330 9999 OVC028/// 09/06 Q0987 WNW (290°) 15.0mph 9°C 6°C
6/06/20 05:50 EGNT 060450Z AUTO 28012KT 9999 OVC030/// 08/06 Q0987 W (280°) 13.8mph 8°C 6°C
6/06/20 05:20 EGNT 060420Z AUTO 28012KT 9999 BKN021/// OVC039/// 08/06 Q0987 RERA W (280°) 13.8mph 8°C 6°C
6/06/20 04:50 EGNT 060350Z AUTO 27012KT 9999 RA BKN020/// OVC038/// 08/05 Q0987 RA W (270°) 13.8mph 8°C 5°C
6/06/20 04:20 EGNT 060320Z AUTO 26012KT 9999 FEW024/// OVC037/// 07/05 Q0987 W (260°) 13.8mph 7°C 5°C
6/06/20 03:50 EGNT 060250Z AUTO 26013KT 9999 FEW021/// SCT031/// OVC045/// 07/05 Q0987 W (260°) 15.0mph 7°C 5°C
6/06/20 03:20 EGNT 060220Z AUTO 27015KT 9999 BKN031/// OVC046/// 07/05 Q0987 W (270°) 17.3mph 7°C 5°C
6/06/20 02:50 EGNT 060150Z AUTO 27014KT 9999 -RA BKN026/// OVC040/// 07/05 Q0987 RERA -RA W (270°) 16.1mph 7°C 5°C
6/06/20 02:20 EGNT 060120Z AUTO 27015KT 9999 RA BKN025/// 07/04 Q0988 RA W (270°) 17.3mph 7°C 4°C
6/06/20 01:50 EGNT 060050Z AUTO 27016KT 9999 BKN022/// 07/04 Q0988 W (270°) 18.4mph 7°C 4°C
6/06/20 01:20 EGNT 060020Z AUTO 27017KT 9999 FEW014/// SCT019/// OVC028/// 07/04 Q0987 W (270°) 19.6mph 7°C 4°C
6/06/20 00:50 EGNT 052350Z AUTO 26019KT 9999 OVC020/// 07/04 Q0987 W (260°) 21.9mph 7°C 4°C
6/06/20 00:20 EGNT 052320Z AUTO 27018KT 9999 OVC027/// 06/04 Q0988 W (270°) 20.7mph 6°C 4°C
5/06/20 23:50 EGNT 052250Z AUTO 27019KT 9999 FEW017/// BKN027/// OVC044/// 06/03 Q0988 RERA W (270°) 21.9mph 6°C 3°C
5/06/20 23:20 EGNT 052220Z AUTO 26020KT 9999 RA FEW017/// BKN030/// OVC045/// 06/03 Q0988 RERA RA W (260°) 23.0mph 6°C 3°C
5/06/20 22:50 EGNT 052150Z AUTO 27020KT 7000 +RA BKN021/// OVC042/// 07/02 Q0988 +RA W (270°) 23.0mph 7°C 2°C
5/06/20 22:20 EGNT 052120Z AUTO 28017KT 9999 -RA BKN030/// 08/02 Q0988 -RA W (280°) 19.6mph 8°C 2°C
5/06/20 21:50 EGNT 052050Z AUTO 28018KT 9999 FEW038/// 09/01 Q0988 W (280°) 20.7mph 9°C 1°C
5/06/20 21:20 EGNT 052020Z AUTO 27015KT 9999 FEW039/// 09/02 Q0989 W (270°) 17.3mph 9°C 2°C
5/06/20 20:50 EGNT 051950Z AUTO 27019KT 9999 NCD 10/02 Q0989 W (270°) 21.9mph 10°C 2°C
5/06/20 20:20 EGNT 051920Z AUTO 28015G25KT 9999 SCT041/// 11/02 Q0989 W (280°) 17.3mph 28.8mph 11°C 2°C
5/06/20 19:50 EGNT 051850Z AUTO 28014KT 9999 SCT046/// 11/02 Q0989 W (280°) 16.1mph 11°C 2°C
5/06/20 19:20 EGNT 051820Z AUTO 28016KT 9999 OVC046/// 11/02 Q0989 W (280°) 18.4mph 11°C 2°C
5/06/20 18:50 EGNT 051750Z AUTO 29018KT 250V310 9999 BKN049/// 12/03 Q0989 WNW (290°) 20.7mph 12°C 3°C
5/06/20 17:50 EGNT 051650Z 25007KT 210V270 9999 VCSH FEW015 SCT042CB 11/05 Q0990 VCSH WSW (250°) 8.1mph 11°C 5°C
5/06/20 17:20 EGNT 051620Z 29016KT 260V320 9999 VCSH SCT039CB 12/01 Q0990 VCSH WNW (290°) 18.4mph 12°C 1°C
5/06/20 16:50 EGNT 051550Z 25013KT 9999 -SHRA SCT035CB 11/03 Q0990 -SHRA WSW (250°) 15.0mph 11°C 3°C
5/06/20 16:20 EGNT 051520Z AUTO 31008KT 270V340 9999 FEW045/// 12/03 Q0991 RERA NW (310°) 9.2mph 12°C 3°C
5/06/20 15:20 EGNT 051420Z AUTO 26011KT 220V300 9999 NCD 14/03 Q0991 W (260°) 12.7mph 14°C 3°C
5/06/20 14:50 EGNT 051350Z AUTO 29015G29KT 260V320 9999 FEW011/// SCT044/// 12/01 Q0992 WNW (290°) 17.3mph 33.4mph 12°C 1°C
5/06/20 14:20 EGNT 051320Z AUTO 31012KT 9999 FEW018/// 12/02 Q0992 NW (310°) 13.8mph 12°C 2°C
5/06/20 13:20 EGNT 051220Z AUTO 29013KT 250V310 9999 SCT037/// 13/02 Q0992 WNW (290°) 15.0mph 13°C 2°C
5/06/20 12:50 EGNT 051150Z 31018KT 9999 VCSH FEW025 SCT035CB 12/03 Q0992 VCSH NW (310°) 20.7mph 12°C 3°C
5/06/20 12:20 EGNT 051120Z 31016KT 9999 VCSH FEW025 SCT035CB 12/03 Q0993 VCSH NW (310°) 18.4mph 12°C 3°C
5/06/20 11:20 EGNT 051020Z 32013KT 9999 VCSH FEW012 SCT030 10/04 Q0993 VCSH NW (320°) 15.0mph 10°C 4°C
5/06/20 10:50 EGNT 050950Z 32015KT 9999 VCSH FEW012 SCT029 10/05 Q0993 VCSH NW (320°) 17.3mph 10°C 5°C
5/06/20 09:50 EGNT 050850Z 32012KT 9999 SCT029 10/03 Q0994 NW (320°) 13.8mph 10°C 3°C
5/06/20 09:20 EGNT 050820Z 31014KT 9999 SCT027 09/03 Q0994 NW (310°) 16.1mph 9°C 3°C
5/06/20 08:20 EGNT 050720Z AUTO 31011KT 9999 FEW022/// 08/05 Q0994 NW (310°) 12.7mph 8°C 5°C
5/06/20 07:50 EGNT 050650Z AUTO 31012KT 9999 FEW015/// 08/06 Q0994 NW (310°) 13.8mph 8°C 6°C
5/06/20 07:20 EGNT 050620Z AUTO 29007KT 9999 FEW039/// 07/06 Q0994 WNW (290°) 8.1mph 7°C 6°C
5/06/20 06:50 EGNT 050550Z AUTO 30005KT 9999 FEW034/// 07/05 Q0994 WNW (300°) 5.8mph 7°C 5°C
5/06/20 06:20 EGNT 050520Z AUTO 29005KT 9999 SCT032/// 06/05 Q0995 WNW (290°) 5.8mph 6°C 5°C
5/06/20 05:50 EGNT 050450Z AUTO 28006KT 9999 NCD 06/05 Q0995 W (280°) 6.9mph 6°C 5°C
5/06/20 05:20 EGNT 050420Z AUTO 29005KT 9999 FEW025/// 06/05 Q0995 WNW (290°) 5.8mph 6°C 5°C
5/06/20 04:50 EGNT 050350Z AUTO 28006KT 9999 BKN024/// OVC039/// 06/05 Q0995 W (280°) 6.9mph 6°C 5°C
5/06/20 04:20 EGNT 050320Z AUTO VRB03KT 9999 OVC018/// 06/05 Q0995 N (0°) 3.5mph 6°C 5°C
5/06/20 03:50 EGNT 050250Z AUTO 29004KT 9999 FEW026/// BKN036/// 06/04 Q0995 WNW (290°) 4.6mph 6°C 4°C
5/06/20 03:20 EGNT 050220Z AUTO 28004KT 9999 NCD 05/04 Q0996 W (280°) 4.6mph 5°C 4°C
5/06/20 02:50 EGNT 050150Z AUTO 28003KT 9999 NCD 06/05 Q0996 W (280°) 3.5mph 6°C 5°C
5/06/20 02:20 EGNT 050120Z AUTO 29004KT 9999 NCD 07/05 Q0996 RERA WNW (290°) 4.6mph 7°C 5°C
5/06/20 01:50 EGNT 050050Z AUTO 31005KT 9999 RA BKN024/// 07/06 Q0997 RERA RA NW (310°) 5.8mph 7°C 6°C
5/06/20 01:20 EGNT 050020Z AUTO 32004KT 9999 RA BKN036/// 07/06 Q0997 RA NW (320°) 4.6mph 7°C 6°C
5/06/20 00:50 EGNT 042350Z AUTO 30003KT 9999 -RA SCT025/// BKN042/// 07/06 Q0997 RERA -RA WNW (300°) 3.5mph 7°C 6°C
5/06/20 00:20 EGNT 042320Z AUTO 34005KT 9999 RA BKN025/// OVC040/// 07/05 Q0997 RA NNW (340°) 5.8mph 7°C 5°C
4/06/20 23:50 EGNT 042250Z AUTO 36006KT 9999 -RA FEW005/// OVC027/// 07/05 Q0998 RERA -RA N (360°) 6.9mph 7°C 5°C
4/06/20 23:20 EGNT 042220Z AUTO 01005KT 9999 RA FEW012/// OVC028/// 08/06 Q0998 RA N (10°) 5.8mph 8°C 6°C
4/06/20 22:50 EGNT 042150Z AUTO 34003KT 9999 RA BKN014/// OVC026/// 08/06 Q0998 RA NNW (340°) 3.5mph 8°C 6°C
4/06/20 22:20 EGNT 042120Z AUTO 03003KT 9999 SCT019/// OVC032/// 08/05 Q0998 NNE (30°) 3.5mph 8°C 5°C
4/06/20 21:50 EGNT 042050Z AUTO 04005KT 9999 -RA OVC033/// 08/05 Q0998 -RA NE (40°) 5.8mph 8°C 5°C
4/06/20 21:20 EGNT 042020Z AUTO 00000KT 9999 OVC030/// 08/06 Q0998 N (0°) 8°C 6°C
4/06/20 20:50 EGNT 041950Z AUTO VRB01KT 9999 OVC027/// 08/05 Q0998 RERA N (0°) 1.2mph 8°C 5°C
4/06/20 20:20 EGNT 041920Z AUTO 08003KT 9999 RA OVC024/// 08/05 Q0998 RA E (80°) 3.5mph 8°C 5°C
4/06/20 19:50 EGNT 041850Z AUTO 08003KT 9999 RA BKN024/// OVC039/// 08/04 Q0999 RA E (80°) 3.5mph 8°C 4°C
4/06/20 19:20 EGNT 041820Z AUTO 09004KT 9999 -RA FEW025/// BKN039/// 09/04 Q0999 -RA E (90°) 4.6mph 9°C 4°C
4/06/20 18:50 EGNT 041750Z AUTO 08005KT 9999 RA FEW024/// BKN035/// BKN045/// 10/04 Q0999 RA E (80°) 5.8mph 10°C 4°C
4/06/20 18:20 EGNT 041720Z 08005KT 060V130 9999 FEW020 BKN035 10/05 Q0999 E (80°) 5.8mph 10°C 5°C
4/06/20 17:50 EGNT 041650Z 08005KT 060V120 9999 FEW015 BKN035 11/05 Q0999 E (80°) 5.8mph 11°C 5°C
4/06/20 17:20 EGNT 041620Z 07005KT 040V110 9999 FEW015 SCT030 11/06 Q0999 ENE (70°) 5.8mph 11°C 6°C
4/06/20 16:50 EGNT 041550Z 09005KT 060V160 9999 FEW015 SCT030 10/07 Q0999 E (90°) 5.8mph 10°C 7°C
4/06/20 16:20 EGNT 041520Z AUTO 09005KT 060V150 9999 OVC037/// 10/07 Q1000 E (90°) 5.8mph 10°C 7°C
4/06/20 15:50 EGNT 041450Z AUTO 10005KT 060V180 8000 -RA BKN028/// OVC049/// 09/06 Q1000 RERA -RA E (100°) 5.8mph 9°C 6°C
4/06/20 15:20 EGNT 041420Z AUTO 08006KT 050V130 9999 RA FEW013/// OVC028/// 09/05 Q1001 RA E (80°) 6.9mph 9°C 5°C
4/06/20 14:20 EGNT 041320Z AUTO 09005KT 060V160 9999 SCT024/// BKN037/// BKN044/// 10/05 Q1001 RERA E (90°) 5.8mph 10°C 5°C
4/06/20 13:50 EGNT 041250Z AUTO 07010KT 9999 FEW020/// BKN046/// 10/05 Q1001 ENE (70°) 11.5mph 10°C 5°C
4/06/20 13:20 EGNT 041220Z AUTO 08007KT 9999 FEW021/// BKN027/// OVC042/// 11/05 Q1001 E (80°) 8.1mph 11°C 5°C
4/06/20 12:50 EGNT 041150Z VRB03KT 9999 SCT020 BKN035 12/06 Q1002 N (0°) 3.5mph 12°C 6°C
4/06/20 12:20 EGNT 041120Z 08005KT 050V140 9999 VCSH FEW020 SCT035 11/06 Q1002 VCSH E (80°) 5.8mph 11°C 6°C
4/06/20 11:50 EGNT 041050Z 30005KT 260V340 9999 FEW018 SCT035 13/05 Q1002 WNW (300°) 5.8mph 13°C 5°C
4/06/20 11:20 EGNT 041020Z 30005KT 250V360 9999 SCT035 12/06 Q1002 WNW (300°) 5.8mph 12°C 6°C
4/06/20 10:50 EGNT 040950Z 26006KT 190V320 9999 SCT035 12/06 Q1003 W (260°) 6.9mph 12°C 6°C
4/06/20 09:50 EGNT 040850Z VRB03KT 9999 SCT012 BKN030 10/05 Q1004 N (0°) 3.5mph 10°C 5°C
4/06/20 09:20 EGNT 040820Z 31005KT 270V340 9999 FEW012 SCT030 09/05 Q1004 NW (310°) 5.8mph 9°C 5°C
4/06/20 08:50 EGNT 040750Z AUTO 31005KT 270V330 9999 FEW018/// OVC034/// 09/05 Q1004 NW (310°) 5.8mph 9°C 5°C
4/06/20 08:20 EGNT 040720Z AUTO 32005KT 9999 OVC035/// 09/06 Q1004 NW (320°) 5.8mph 9°C 6°C
4/06/20 07:50 EGNT 040650Z AUTO 31005KT 9999 OVC041/// 09/06 Q1005 NW (310°) 5.8mph 9°C 6°C
4/06/20 07:20 EGNT 040620Z AUTO 29004KT 9999 BKN041/// 08/06 Q1005 WNW (290°) 4.6mph 8°C 6°C
4/06/20 06:50 EGNT 040550Z AUTO 29005KT 9999 BKN042/// 08/06 Q1005 WNW (290°) 5.8mph 8°C 6°C
4/06/20 06:20 EGNT 040520Z AUTO 32005KT 9999 OVC043/// 08/06 Q1006 NW (320°) 5.8mph 8°C 6°C